Time;durP1;ratioP1;P1;durP2;ratioP2;P2;SDS_P1;SDS_P2;PMS_P1;PMS_P2;Temp;Humidity;BMP_temperature;BMP_pressure;BME280_temperature;BME280_humidity;BME280_pressure;Samples;Min_cycle;Max_cycle;Signal;HPM_P1;HPM_P2
2023/07/19 00:00:35;;;;;;;2.83;1.52;;;15.80;99.90;;;;;;4999727;28;20046;-77
2023/07/19 00:03:01;;;;;;;4.60;1.80;;;15.70;99.90;;;;;;5002659;28;20121;-77
2023/07/19 00:05:27;;;;;;;1.85;1.75;;;15.80;99.90;;;;;;5000446;28;20069;-76
2023/07/19 00:07:52;;;;;;;2.45;2.00;;;15.70;99.90;;;;;;5001664;28;20037;-74
2023/07/19 00:10:18;;;;;;;2.05;1.85;;;15.70;99.90;;;;;;4970243;28;20030;-76
2023/07/19 00:12:43;;;;;;;2.47;1.60;;;15.70;99.90;;;;;;4997301;28;20037;-76
2023/07/19 00:15:09;;;;;;;2.35;2.05;;;15.70;99.90;;;;;;5002320;28;20022;-77
2023/07/19 00:17:34;;;;;;;1.80;1.70;;;15.70;99.90;;;;;;5001319;28;20022;-76
2023/07/19 00:20:00;;;;;;;2.85;2.13;;;15.70;99.90;;;;;;4984496;28;20025;-77
2023/07/19 00:22:25;;;;;;;2.90;1.60;;;15.70;99.90;;;;;;4999258;28;20025;-77
2023/07/19 00:24:51;;;;;;;2.83;1.63;;;15.70;99.90;;;;;;4982286;28;20024;-77
2023/07/19 00:27:17;;;;;;;1.92;1.73;;;15.70;99.90;;;;;;5002520;28;20788;-77
2023/07/19 00:29:42;;;;;;;2.70;1.88;;;15.70;99.90;;;;;;4983875;28;20026;-76
2023/07/19 00:32:08;;;;;;;1.65;1.55;;;15.70;99.90;;;;;;5001962;28;20038;-76
2023/07/19 00:34:33;;;;;;;2.85;1.60;;;15.60;99.90;;;;;;5000028;28;20063;-76
2023/07/19 00:37:00;;;;;;;2.92;1.70;;;15.60;99.90;;;;;;5001511;28;20029;-77
2023/07/19 00:39:25;;;;;;;1.92;1.65;;;15.60;99.90;;;;;;5001905;28;20018;-76
2023/07/19 00:41:51;;;;;;;2.97;1.98;;;15.60;99.90;;;;;;5001299;28;20377;-76
2023/07/19 00:44:16;;;;;;;1.65;1.35;;;15.60;99.90;;;;;;5001791;28;20619;-77
2023/07/19 00:46:42;;;;;;;1.60;1.50;;;15.60;99.90;;;;;;5001874;28;20105;-77
2023/07/19 00:49:10;;;;;;;2.10;1.80;;;15.50;99.90;;;;;;5002289;28;20018;-75
2023/07/19 00:51:36;;;;;;;2.13;1.92;;;15.50;99.90;;;;;;5000389;28;20053;-76
2023/07/19 00:54:03;;;;;;;1.98;1.77;;;15.50;99.90;;;;;;5001272;28;20119;-77
2023/07/19 00:56:29;;;;;;;2.03;1.70;;;15.50;99.90;;;;;;5001535;28;20030;-77
2023/07/19 00:58:54;;;;;;;2.53;1.90;;;15.50;99.90;;;;;;4998437;28;20018;-76
2023/07/19 01:01:23;;;;;;;3.13;2.00;;;15.50;99.90;;;;;;4999678;28;20096;-77
2023/07/19 01:03:49;;;;;;;3.47;1.77;;;15.50;99.90;;;;;;4981172;28;20026;-77
2023/07/19 01:06:14;;;;;;;2.70;2.42;;;15.50;99.90;;;;;;5003113;28;20527;-77
2023/07/19 01:08:40;;;;;;;3.22;2.00;;;15.40;99.90;;;;;;4999705;28;20049;-76
2023/07/19 01:11:06;;;;;;;2.67;1.80;;;15.40;99.90;;;;;;5002852;28;20029;-77
2023/07/19 01:13:31;;;;;;;3.38;1.77;;;15.50;99.90;;;;;;5005916;28;20286;-77
2023/07/19 01:15:57;;;;;;;2.50;1.83;;;15.50;99.90;;;;;;5014183;28;20033;-77
2023/07/19 01:18:22;;;;;;;1.92;1.77;;;15.50;99.90;;;;;;5000280;28;20038;-76
2023/07/19 01:20:48;;;;;;;3.75;2.05;;;15.50;99.90;;;;;;5004329;28;20097;-77
2023/07/19 01:23:14;;;;;;;3.85;2.38;;;15.50;99.90;;;;;;4993378;28;20089;-77
2023/07/19 01:25:39;;;;;;;8.15;2.67;;;15.50;99.90;;;;;;4988892;28;20040;-76
2023/07/19 01:28:06;;;;;;;3.92;1.90;;;15.50;99.90;;;;;;4997478;28;20042;-76
2023/07/19 01:30:31;;;;;;;4.00;2.22;;;15.50;99.90;;;;;;5002817;28;20031;-77
2023/07/19 01:32:57;;;;;;;3.47;2.40;;;15.50;99.90;;;;;;5005252;28;20022;-76
2023/07/19 01:35:23;;;;;;;2.63;2.42;;;15.40;99.90;;;;;;4997341;28;20065;-77
2023/07/19 01:37:48;;;;;;;3.10;2.25;;;15.40;99.90;;;;;;5005644;28;20029;-76
2023/07/19 01:40:14;;;;;;;2.63;2.25;;;15.40;99.90;;;;;;5005435;28;20045;-77
2023/07/19 01:42:40;;;;;;;2.80;2.42;;;15.40;99.90;;;;;;4995989;28;20493;-77
2023/07/19 01:45:06;;;;;;;5.75;2.35;;;15.30;99.90;;;;;;5004978;28;20036;-77
2023/07/19 01:47:32;;;;;;;3.22;2.50;;;15.30;99.90;;;;;;5003950;28;20041;-76
2023/07/19 01:49:57;;;;;;;2.70;2.28;;;15.30;99.90;;;;;;5003090;28;20385;-76
2023/07/19 01:52:23;;;;;;;2.00;1.80;;;15.30;99.90;;;;;;5004366;28;20408;-77
2023/07/19 01:54:48;;;;;;;3.03;2.40;;;15.30;99.90;;;;;;4984477;28;20489;-77
2023/07/19 01:57:15;;;;;;;4.72;2.58;;;15.20;99.90;;;;;;5005082;28;20081;-76
2023/07/19 01:59:40;;;;;;;4.78;2.15;;;15.20;99.90;;;;;;4986433;28;20437;-77
2023/07/19 02:02:06;;;;;;;4.05;2.33;;;15.20;99.90;;;;;;5004945;28;20030;-76
2023/07/19 02:04:31;;;;;;;2.60;2.03;;;15.20;99.90;;;;;;4986507;28;20060;-77
2023/07/19 02:06:57;;;;;;;4.20;1.90;;;15.20;99.90;;;;;;5000529;28;20523;-77
2023/07/19 02:09:22;;;;;;;3.05;2.10;;;15.20;99.90;;;;;;5004533;28;20037;-77
2023/07/19 02:11:48;;;;;;;7.13;2.85;;;15.20;99.90;;;;;;5003395;28;20030;-77
2023/07/19 02:14:14;;;;;;;5.30;2.15;;;15.20;99.90;;;;;;5002760;28;20025;-75
2023/07/19 02:16:39;;;;;;;2.40;2.00;;;15.20;99.90;;;;;;5001398;28;20026;-77
2023/07/19 02:19:06;;;;;;;5.60;1.70;;;15.10;99.90;;;;;;5002728;28;20018;-76
2023/07/19 02:21:32;;;;;;;1.90;1.67;;;15.10;99.90;;;;;;5002078;28;20030;-77
2023/07/19 02:23:58;;;;;;;2.90;1.98;;;15.00;99.90;;;;;;5004139;28;20049;-77
2023/07/19 02:26:24;;;;;;;2.42;2.00;;;15.00;99.90;;;;;;5003853;28;20061;-77
2023/07/19 02:28:50;;;;;;;6.38;2.53;;;14.90;99.90;;;;;;4998950;28;20045;-77
2023/07/19 02:31:15;;;;;;;3.60;1.95;;;15.00;99.90;;;;;;5004017;28;20066;-76
2023/07/19 02:33:41;;;;;;;2.38;2.05;;;14.90;99.90;;;;;;5002078;28;20033;-77
2023/07/19 02:36:08;;;;;;;2.40;1.80;;;14.90;99.90;;;;;;4982666;28;20026;-75
2023/07/19 02:38:34;;;;;;;5.50;2.15;;;14.90;99.90;;;;;;5003134;28;20766;-76
2023/07/19 02:41:00;;;;;;;3.72;2.20;;;14.80;99.90;;;;;;5004411;28;20018;-77
2023/07/19 02:43:27;;;;;;;2.08;1.70;;;14.80;99.90;;;;;;4986694;28;20026;-76
2023/07/19 02:45:53;;;;;;;3.45;1.80;;;14.80;99.90;;;;;;5003466;28;20027;-77
2023/07/19 02:48:22;;;;;;;2.22;1.85;;;14.80;99.90;;;;;;4987106;28;20026;-77
2023/07/19 02:50:49;;;;;;;3.42;1.98;;;14.70;99.90;;;;;;5001250;28;20022;-77
2023/07/19 02:53:15;;;;;;;2.75;1.88;;;14.80;99.90;;;;;;5003623;28;20029;-77
2023/07/19 02:55:44;;;;;;;3.08;1.50;;;14.80;99.90;;;;;;4999764;28;20026;-77
2023/07/19 02:58:10;;;;;;;2.75;1.80;;;14.90;99.90;;;;;;5004207;28;20126;-76
2023/07/19 03:00:40;;;;;;;2.45;1.73;;;14.80;99.90;;;;;;4984247;28;20488;-76
2023/07/19 03:03:06;;;;;;;4.40;1.58;;;14.80;99.90;;;;;;5000018;28;20248;-76
2023/07/19 03:05:34;;;;;;;1.80;1.65;;;14.90;99.90;;;;;;4981683;28;20033;-77
2023/07/19 03:08:01;;;;;;;1.75;1.50;;;14.80;99.90;;;;;;5000383;28;20014;-76
2023/07/19 03:10:27;;;;;;;1.30;1.00;;;14.80;99.90;;;;;;4988668;28;20025;-77
2023/07/19 03:12:52;;;;;;;1.60;1.50;;;14.80;99.90;;;;;;5000552;28;20030;-76
2023/07/19 03:15:18;;;;;;;2.47;1.58;;;14.70;99.90;;;;;;5005909;28;20033;-76
2023/07/19 03:17:44;;;;;;;2.20;1.63;;;14.70;99.90;;;;;;4983149;28;20026;-75
2023/07/19 03:20:10;;;;;;;1.58;1.25;;;14.70;99.90;;;;;;4982890;28;20053;-77
2023/07/19 03:22:36;;;;;;;1.35;1.25;;;14.70;99.90;;;;;;4985798;28;20030;-77
2023/07/19 03:25:01;;;;;;;1.40;1.30;;;14.70;99.90;;;;;;4998403;28;20134;-77
2023/07/19 03:27:27;;;;;;;1.67;1.58;;;14.70;99.90;;;;;;5006090;28;20026;-77
2023/07/19 03:29:52;;;;;;;2.13;1.48;;;14.60;99.90;;;;;;4996881;28;20054;-76
2023/07/19 03:32:18;;;;;;;2.38;1.65;;;14.60;99.90;;;;;;4980771;28;20049;-76
2023/07/19 03:34:43;;;;;;;2.15;1.30;;;14.70;99.90;;;;;;4993843;28;20030;-76
2023/07/19 03:37:09;;;;;;;1.38;1.15;;;14.60;99.90;;;;;;5002209;28;20389;-77
2023/07/19 03:39:35;;;;;;;1.80;1.30;;;14.60;99.90;;;;;;5000667;28;20515;-76
2023/07/19 03:42:00;;;;;;;2.20;1.27;;;14.60;99.90;;;;;;5003452;28;20405;-76
2023/07/19 03:44:25;;;;;;;1.42;1.20;;;14.60;99.90;;;;;;4995442;28;20030;-77
2023/07/19 03:46:51;;;;;;;2.63;1.60;;;14.60;99.90;;;;;;5006100;28;20022;-76
2023/07/19 03:49:16;;;;;;;2.60;1.88;;;14.50;99.90;;;;;;4980555;28;20385;-76
2023/07/19 03:51:42;;;;;;;2.70;2.13;;;14.40;99.90;;;;;;5001549;28;20022;-77
2023/07/19 03:54:08;;;;;;;3.17;1.90;;;14.30;99.90;;;;;;5001645;28;20069;-77
2023/07/19 03:56:33;;;;;;;1.23;1.13;;;14.30;99.90;;;;;;4992965;28;20023;-77
2023/07/19 03:58:59;;;;;;;2.10;1.65;;;14.30;99.90;;;;;;5003735;28;20664;-77
2023/07/19 04:01:24;;;;;;;4.05;1.88;;;14.30;99.90;;;;;;4980813;28;20535;-77
2023/07/19 04:03:50;;;;;;;1.67;1.30;;;14.30;99.90;;;;;;5005636;28;20481;-77
2023/07/19 04:06:17;;;;;;;4.15;2.00;;;14.30;99.90;;;;;;4999880;28;20054;-78
2023/07/19 04:08:43;;;;;;;1.67;1.58;;;14.30;99.90;;;;;;5000761;28;20037;-78
2023/07/19 04:11:08;;;;;;;2.80;1.95;;;14.40;99.90;;;;;;5003205;28;20030;-78
2023/07/19 04:13:34;;;;;;;3.38;2.10;;;14.30;99.90;;;;;;4989645;28;20030;-77
2023/07/19 04:15:59;;;;;;;1.95;1.80;;;14.30;99.90;;;;;;5006157;28;20556;-77
2023/07/19 04:18:25;;;;;;;1.85;1.75;;;14.30;99.90;;;;;;4999615;28;20022;-78
2023/07/19 04:20:56;;;;;;;4.70;2.80;;;14.40;99.90;;;;;;5007064;28;20027;-78
2023/07/19 04:23:22;;;;;;;2.35;1.67;;;14.30;99.90;;;;;;4979342;28;20050;-77
2023/07/19 04:25:49;;;;;;;4.75;2.03;;;14.20;99.90;;;;;;5000718;28;20056;-77
2023/07/19 04:28:15;;;;;;;3.97;2.05;;;14.20;99.90;;;;;;4986156;28;20022;-78
2023/07/19 04:30:40;;;;;;;3.08;2.10;;;14.20;99.90;;;;;;4998708;28;20107;-78
2023/07/19 04:33:06;;;;;;;2.72;2.25;;;14.30;99.90;;;;;;5002330;28;20050;-77
2023/07/19 04:35:32;;;;;;;2.83;2.17;;;14.20;99.90;;;;;;4998180;28;20034;-78
2023/07/19 04:37:57;;;;;;;2.58;2.28;;;14.20;99.90;;;;;;5002626;28;20014;-78
2023/07/19 04:40:23;;;;;;;3.60;2.30;;;14.10;99.90;;;;;;4999390;28;20018;-77
2023/07/19 04:42:49;;;;;;;7.22;2.35;;;14.10;99.90;;;;;;5002346;28;20041;-78
2023/07/19 04:45:14;;;;;;;2.70;2.33;;;14.10;99.90;;;;;;4984330;28;20029;-77
2023/07/19 04:47:40;;;;;;;2.58;2.20;;;14.10;99.90;;;;;;4998230;28;20107;-77
2023/07/19 04:50:07;;;;;;;3.10;2.63;;;14.10;99.90;;;;;;5002850;28;20038;-77
2023/07/19 04:52:33;;;;;;;4.28;2.25;;;14.20;99.90;;;;;;4982689;28;20567;-78
2023/07/19 04:54:58;;;;;;;5.30;2.72;;;14.20;99.90;;;;;;5001821;28;20105;-78
2023/07/19 04:57:24;;;;;;;4.75;2.88;;;14.20;99.90;;;;;;5000852;28;20392;-78
2023/07/19 04:59:49;;;;;;;3.83;2.58;;;14.20;99.90;;;;;;5001768;28;20029;-78
2023/07/19 05:02:15;;;;;;;2.67;2.17;;;14.20;99.90;;;;;;5001317;28;20037;-77
2023/07/19 05:04:40;;;;;;;3.15;2.10;;;14.10;99.90;;;;;;4982747;28;20504;-77
2023/07/19 05:07:06;;;;;;;3.05;2.30;;;14.10;99.90;;;;;;4984069;28;20032;-77
2023/07/19 05:09:31;;;;;;;4.18;2.28;;;14.20;99.90;;;;;;4997316;28;20026;-78
2023/07/19 05:11:57;;;;;;;2.42;2.10;;;14.10;99.90;;;;;;5006772;28;20477;-78
2023/07/19 05:14:23;;;;;;;3.92;2.30;;;14.20;99.90;;;;;;5000930;28;20033;-78
2023/07/19 05:16:49;;;;;;;6.60;2.03;;;14.10;99.90;;;;;;4987754;28;20029;-78
2023/07/19 05:19:15;;;;;;;2.92;1.90;;;14.10;99.90;;;;;;4984281;28;20026;-78
2023/07/19 05:21:40;;;;;;;2.15;1.90;;;14.10;99.90;;;;;;4997631;28;20060;-78
2023/07/19 05:24:06;;;;;;;2.25;1.83;;;14.20;99.90;;;;;;5001955;28;20026;-78
2023/07/19 05:26:32;;;;;;;2.60;2.40;;;14.20;99.90;;;;;;4998200;28;20029;-78
2023/07/19 05:28:57;;;;;;;4.28;2.00;;;14.20;99.90;;;;;;5000353;28;20030;-78
2023/07/19 05:31:23;;;;;;;2.83;1.70;;;14.20;99.90;;;;;;4983802;28;20552;-78
2023/07/19 05:33:48;;;;;;;1.95;1.73;;;14.20;99.90;;;;;;4998425;28;20129;-78
2023/07/19 05:36:14;;;;;;;2.47;2.20;;;14.20;99.90;;;;;;4985156;28;20497;-77
2023/07/19 05:38:39;;;;;;;3.70;2.00;;;14.20;99.90;;;;;;4999070;28;20029;-77
2023/07/19 05:41:06;;;;;;;2.25;1.65;;;14.20;99.90;;;;;;4986861;28;20041;-77
2023/07/19 05:43:33;;;;;;;2.17;1.75;;;14.20;99.90;;;;;;5000465;28;20024;-78
2023/07/19 05:46:09;;;;;;;1.80;1.70;;;14.10;99.90;;;;;;4983615;28;20045;-78
2023/07/19 05:48:35;;;;;;;1.70;1.60;;;14.10;99.90;;;;;;5000143;28;20105;-77
2023/07/19 05:51:03;;;;;;;2.65;1.45;;;14.10;99.90;;;;;;4980600;28;20557;-77
2023/07/19 05:53:28;;;;;;;2.53;1.80;;;14.10;99.90;;;;;;4989109;28;20045;-78
2023/07/19 05:55:54;;;;;;;5.95;2.10;;;14.10;99.90;;;;;;4997910;28;20027;-78
2023/07/19 05:58:20;;;;;;;2.88;2.05;;;14.20;99.90;;;;;;5004825;28;20033;-79
2023/07/19 06:00:47;;;;;;;3.22;1.70;;;14.20;99.90;;;;;;4997022;28;20137;-78
2023/07/19 06:03:14;;;;;;;2.03;1.88;;;14.20;99.90;;;;;;4987059;28;20030;-78
2023/07/19 06:05:40;;;;;;;2.58;1.70;;;14.20;99.90;;;;;;4981636;28;20025;-78
2023/07/19 06:08:06;;;;;;;3.70;1.98;;;14.20;99.90;;;;;;4998133;28;20073;-78
2023/07/19 06:10:31;;;;;;;1.98;1.30;;;14.30;99.90;;;;;;4988694;28;20511;-77
2023/07/19 06:12:57;;;;;;;3.95;1.80;;;14.20;99.90;;;;;;4980951;28;20034;-79
2023/07/19 06:15:22;;;;;;;1.98;1.58;;;14.20;99.90;;;;;;4986919;28;20026;-79
2023/07/19 06:17:48;;;;;;;2.75;1.65;;;14.30;99.90;;;;;;5001766;28;20029;-79
2023/07/19 06:20:14;;;;;;;2.60;1.75;;;14.30;99.90;;;;;;5007657;28;20030;-79
2023/07/19 06:22:39;;;;;;;2.35;2.00;;;14.30;99.90;;;;;;4981911;28;20555;-79
2023/07/19 06:25:06;;;;;;;2.38;1.77;;;14.30;99.90;;;;;;4982474;28;20629;-80
2023/07/19 06:27:31;;;;;;;3.35;2.08;;;14.30;99.90;;;;;;5007841;28;20113;-78
2023/07/19 06:29:58;;;;;;;4.63;2.13;;;14.30;99.90;;;;;;4983554;28;20452;-79
2023/07/19 06:32:23;;;;;;;1.60;1.20;;;14.30;99.90;;;;;;4995675;28;20123;-79
2023/07/19 06:34:49;;;;;;;1.45;1.35;;;14.20;99.90;;;;;;4978739;28;20154;-79
2023/07/19 06:37:15;;;;;;;1.80;1.70;;;14.30;99.90;;;;;;5000176;28;20098;-79
2023/07/19 06:39:40;;;;;;;3.75;1.67;;;14.20;99.90;;;;;;4982426;28;20053;-79
2023/07/19 06:42:06;;;;;;;3.35;1.58;;;14.20;99.90;;;;;;4983987;28;20031;-79
2023/07/19 06:44:31;;;;;;;2.20;1.80;;;14.20;99.90;;;;;;4983800;28;20089;-78
2023/07/19 06:46:59;;;;;;;2.53;1.52;;;14.20;99.90;;;;;;5007556;28;20085;-78
2023/07/19 06:49:25;;;;;;;3.17;1.75;;;14.20;99.90;;;;;;5001023;28;20470;-79
2023/07/19 06:51:50;;;;;;;1.80;1.70;;;14.20;99.90;;;;;;5003126;28;20053;-79
2023/07/19 06:54:16;;;;;;;2.40;2.00;;;14.30;99.90;;;;;;5002220;28;20049;-79
2023/07/19 06:56:42;;;;;;;3.63;2.13;;;14.30;99.90;;;;;;5003227;28;20034;-79
2023/07/19 06:59:07;;;;;;;2.40;1.65;;;14.30;99.90;;;;;;5004799;28;20030;-78
2023/07/19 07:01:33;;;;;;;3.55;1.90;;;14.30;99.90;;;;;;4980088;28;20035;-80
2023/07/19 07:03:58;;;;;;;3.13;1.75;;;14.30;99.90;;;;;;4988343;28;20509;-80
2023/07/19 07:06:24;;;;;;;3.63;1.90;;;14.30;99.90;;;;;;4982755;28;20022;-79
2023/07/19 07:08:49;;;;;;;3.63;1.73;;;14.30;99.90;;;;;;5003923;28;20026;-79
2023/07/19 07:11:15;;;;;;;3.17;1.60;;;14.30;99.90;;;;;;4984120;28;20486;-79
2023/07/19 07:13:41;;;;;;;2.45;1.70;;;14.30;99.90;;;;;;4984625;28;20022;-80
2023/07/19 07:16:06;;;;;;;4.18;1.63;;;14.30;99.90;;;;;;5004441;28;20026;-79
2023/07/19 07:18:32;;;;;;;2.05;1.60;;;14.30;99.90;;;;;;5000072;28;20018;-79
2023/07/19 07:20:57;;;;;;;2.38;2.00;;;14.30;99.90;;;;;;4989214;28;20474;-78
2023/07/19 07:23:23;;;;;;;1.77;1.67;;;14.40;99.90;;;;;;4980005;28;20462;-79
2023/07/19 07:25:55;;;;;;;1.58;1.48;;;14.40;99.90;;;;;;4992469;28;20079;-78
2023/07/19 07:28:21;;;;;;;3.33;2.10;;;14.30;99.90;;;;;;5002260;28;20022;-78
2023/07/19 07:30:46;;;;;;;3.33;1.88;;;14.30;99.90;;;;;;5002762;28;20025;-79
2023/07/19 07:33:12;;;;;;;2.10;1.90;;;14.30;99.90;;;;;;4986378;28;20033;-79
2023/07/19 07:35:37;;;;;;;3.03;1.60;;;14.30;99.90;;;;;;5000544;28;20053;-79
2023/07/19 07:38:03;;;;;;;1.98;1.88;;;14.30;99.90;;;;;;5003710;28;20021;-79
2023/07/19 07:40:29;;;;;;;2.05;1.50;;;14.30;99.90;;;;;;4984066;28;20477;-79
2023/07/19 07:42:55;;;;;;;1.63;1.40;;;14.40;99.90;;;;;;5003625;28;20441;-79
2023/07/19 07:45:20;;;;;;;1.70;1.58;;;14.40;99.90;;;;;;5004186;28;20508;-79
2023/07/19 07:47:46;;;;;;;1.83;1.70;;;14.40;99.90;;;;;;4987434;28;20476;-79
2023/07/19 07:50:11;;;;;;;2.22;1.95;;;14.40;99.90;;;;;;4985344;28;20049;-79
2023/07/19 07:52:37;;;;;;;2.00;1.60;;;14.50;99.90;;;;;;4997560;28;20343;-79
2023/07/19 07:55:05;;;;;;;2.50;1.85;;;14.50;99.90;;;;;;4985017;28;20026;-79
2023/07/19 07:57:33;;;;;;;2.63;1.50;;;14.50;99.90;;;;;;5000895;28;20444;-79
2023/07/19 08:00:02;;;;;;;2.10;1.48;;;14.50;99.90;;;;;;4985543;28;20536;-78
2023/07/19 08:02:28;;;;;;;2.58;1.85;;;14.50;99.90;;;;;;5001903;28;20038;-78
2023/07/19 08:04:54;;;;;;;2.22;1.45;;;14.50;99.90;;;;;;4984570;28;20047;-78
2023/07/19 08:07:20;;;;;;;1.75;1.63;;;14.50;99.90;;;;;;5003635;28;20124;-79
2023/07/19 08:09:45;;;;;;;2.25;1.58;;;14.50;99.90;;;;;;4982823;28;20072;-78
2023/07/19 08:12:11;;;;;;;2.08;1.30;;;14.60;99.90;;;;;;5000762;28;20034;-79
2023/07/19 08:14:37;;;;;;;3.10;2.05;;;14.60;99.90;;;;;;5000780;28;20057;-79
2023/07/19 08:17:02;;;;;;;1.52;1.42;;;14.60;99.90;;;;;;4985278;28;20084;-79
2023/07/19 08:19:28;;;;;;;2.40;1.65;;;14.60;99.90;;;;;;4994810;28;20022;-79
2023/07/19 08:22:03;;;;;;;2.03;1.30;;;14.60;99.90;;;;;;4983486;28;20068;-79
2023/07/19 08:24:29;;;;;;;1.38;1.20;;;14.70;99.90;;;;;;5001402;28;20018;-78
2023/07/19 08:26:54;;;;;;;2.20;1.13;;;14.60;99.90;;;;;;5001555;28;20028;-79
2023/07/19 08:29:20;;;;;;;1.58;1.48;;;14.60;99.90;;;;;;4985238;28;20048;-79
2023/07/19 08:31:45;;;;;;;1.77;1.55;;;14.70;99.90;;;;;;4996026;28;20106;-79
2023/07/19 08:34:11;;;;;;;1.02;1.00;;;14.70;99.90;;;;;;4998964;28;20596;-79
2023/07/19 08:36:36;;;;;;;1.42;0.95;;;14.70;99.90;;;;;;5005811;28;20677;-79
2023/07/19 08:39:02;;;;;;;2.22;1.10;;;14.70;99.90;;;;;;4999699;28;20050;-79
2023/07/19 08:41:31;;;;;;;1.58;1.33;;;14.70;99.90;;;;;;4989955;28;20056;-79
2023/07/19 08:43:57;;;;;;;2.80;1.60;;;14.70;99.90;;;;;;4995559;28;20022;-79
2023/07/19 08:46:23;;;;;;;1.13;0.90;;;14.80;99.90;;;;;;5006822;28;20044;-78
2023/07/19 08:48:50;;;;;;;1.60;1.45;;;14.80;99.90;;;;;;4982129;28;20030;-79
2023/07/19 08:51:17;;;;;;;2.90;1.60;;;14.80;99.90;;;;;;4998465;28;20034;-79
2023/07/19 08:53:43;;;;;;;2.22;1.52;;;14.90;99.90;;;;;;4986939;28;20041;-78
2023/07/19 08:56:11;;;;;;;2.35;1.25;;;15.00;99.90;;;;;;4981320;28;20026;-79
2023/07/19 08:58:39;;;;;;;2.97;1.60;;;15.10;99.90;;;;;;4990303;28;20018;-78
2023/07/19 09:01:05;;;;;;;1.45;1.25;;;15.10;99.90;;;;;;4981489;28;20169;-78
2023/07/19 09:03:31;;;;;;;1.52;1.23;;;15.10;99.90;;;;;;5007022;28;20540;-79
2023/07/19 09:05:56;;;;;;;2.38;1.23;;;15.00;99.90;;;;;;4980300;28;20273;-78
2023/07/19 09:08:37;;;;;;;1.90;1.63;;;15.00;99.90;;;;;;4982725;28;20034;-78
2023/07/19 09:11:03;;;;;;;2.05;1.33;;;15.10;99.90;;;;;;5000667;28;20039;-78
2023/07/19 09:13:35;;;;;;;1.40;1.10;;;15.20;99.90;;;;;;4997875;28;20385;-77
2023/07/19 09:16:02;;;;;;;1.23;1.10;;;15.10;99.90;;;;;;5003792;28;20104;-79
2023/07/19 09:18:32;;;;;;;2.13;1.13;;;15.30;99.90;;;;;;4999293;28;20026;-79
2023/07/19 09:20:58;;;;;;;1.25;1.15;;;15.50;99.90;;;;;;4982849;28;20026;-77
2023/07/19 09:23:24;;;;;;;1.95;1.00;;;15.50;99.90;;;;;;4981368;28;20019;-77
2023/07/19 09:25:51;;;;;;;1.55;1.23;;;15.60;99.90;;;;;;4984880;28;20042;-78
2023/07/19 09:28:21;;;;;;;1.98;1.05;;;15.70;99.90;;;;;;4998414;28;20030;-78
2023/07/19 09:31:14;;;;;;;1.33;1.17;;;15.80;99.90;;;;;;5002972;28;20096;-78
2023/07/19 09:33:40;;;;;;;1.10;1.00;;;16.00;99.90;;;;;;4983426;28;20432;-78
2023/07/19 09:36:06;;;;;;;1.13;1.08;;;16.20;99.90;;;;;;5004316;28;20079;-77
2023/07/19 09:38:31;;;;;;;1.75;0.95;;;16.20;99.90;;;;;;5003297;28;20112;-76
2023/07/19 09:40:58;;;;;;;1.25;1.15;;;16.30;99.90;;;;;;4988157;28;20018;-78
2023/07/19 09:43:23;;;;;;;0.63;0.63;;;16.30;99.90;;;;;;5003965;28;20094;-77
2023/07/19 09:45:50;;;;;;;1.35;0.80;;;16.40;99.90;;;;;;4986050;28;20036;-77
2023/07/19 09:48:16;;;;;;;2.67;1.05;;;16.40;99.90;;;;;;4991503;28;20028;-77
2023/07/19 09:50:43;;;;;;;1.85;0.90;;;16.30;99.90;;;;;;5005115;28;20029;-77
2023/07/19 09:53:12;;;;;;;1.08;0.73;;;16.30;99.90;;;;;;5008191;28;20036;-77
2023/07/19 09:55:39;;;;;;;2.00;1.00;;;16.30;99.90;;;;;;5004215;28;20025;-78
2023/07/19 09:58:11;;;;;;;0.93;0.73;;;16.50;99.90;;;;;;5007882;28;20021;-77
2023/07/19 10:00:37;;;;;;;0.75;0.52;;;16.80;99.90;;;;;;4985767;28;20485;-76
2023/07/19 10:03:07;;;;;;;1.40;0.98;;;16.90;99.90;;;;;;4989232;28;20034;-77
2023/07/19 10:05:32;;;;;;;1.00;0.70;;;16.90;99.90;;;;;;4985103;28;20025;-77
2023/07/19 10:08:04;;;;;;;0.80;0.63;;;17.00;99.90;;;;;;4983747;28;20030;-77
2023/07/19 10:10:37;;;;;;;3.15;0.70;;;17.10;99.90;;;;;;4990424;28;20026;-77
2023/07/19 10:13:03;;;;;;;1.05;0.82;;;17.30;99.90;;;;;;4984031;28;20637;-77
2023/07/19 10:15:28;;;;;;;1.52;0.60;;;17.30;99.90;;;;;;5007513;28;20034;-77
2023/07/19 10:17:58;;;;;;;0.90;0.73;;;17.40;99.90;;;;;;5000558;28;20714;-78
2023/07/19 10:20:34;;;;;;;0.88;0.70;;;17.40;99.90;;;;;;5008287;28;20022;-77
2023/07/19 10:23:08;;;;;;;1.20;0.70;;;17.40;99.90;;;;;;4976854;28;20385;-77
2023/07/19 10:25:51;;;;;;;0.98;0.82;;;17.50;99.90;;;;;;5000207;28;20022;-77
2023/07/19 10:28:29;;;;;;;1.67;0.93;;;17.50;99.90;;;;;;5000653;28;20046;-77
2023/07/19 10:30:56;;;;;;;1.08;0.70;;;17.50;99.90;;;;;;4989670;28;20034;-77
2023/07/19 10:33:29;;;;;;;1.83;1.05;;;17.40;99.90;;;;;;4981037;28;20026;-76
2023/07/19 10:36:07;;;;;;;0.82;0.75;;;17.50;99.90;;;;;;5002065;28;20057;-77
2023/07/19 10:38:34;;;;;;;3.10;0.90;;;17.60;99.90;;;;;;4985147;28;20026;-76
2023/07/19 10:41:02;;;;;;;1.27;0.90;;;17.60;99.90;;;;;;4987571;28;20021;-76
2023/07/19 10:43:29;;;;;;;1.70;0.93;;;17.70;99.90;;;;;;5003168;28;20021;-76
2023/07/19 10:45:56;;;;;;;1.17;0.98;;;17.80;99.90;;;;;;5003246;28;20021;-77
2023/07/19 10:48:29;;;;;;;1.20;0.80;;;17.90;99.90;;;;;;5003967;28;20026;-77
2023/07/19 10:51:21;;;;;;;1.13;0.75;;;18.00;99.90;;;;;;4982137;28;20072;-77
2023/07/19 10:53:59;;;;;;;1.13;0.80;;;18.00;99.90;;;;;;5003075;28;20038;-77
2023/07/19 10:56:26;;;;;;;1.00;0.90;;;18.00;99.90;;;;;;4993337;28;20053;-76
2023/07/19 10:58:58;;;;;;;0.77;0.63;;;17.90;99.90;;;;;;5006229;28;20021;-76
2023/07/19 11:01:26;;;;;;;2.00;0.80;;;17.90;99.90;;;;;;4996564;28;20409;-76
2023/07/19 11:03:51;;;;;;;1.70;1.17;;;17.90;99.90;;;;;;4992120;28;20027;-76
2023/07/19 11:06:17;;;;;;;3.25;0.88;;;18.10;99.90;;;;;;4987506;28;20022;-76
2023/07/19 11:08:44;;;;;;;1.00;0.90;;;18.20;99.90;;;;;;4984826;28;20034;-76
2023/07/19 11:11:12;;;;;;;1.92;1.20;;;18.30;99.90;;;;;;4985854;28;20023;-76
2023/07/19 11:13:38;;;;;;;1.55;1.08;;;18.30;99.90;;;;;;5001913;28;20104;-76
2023/07/19 11:16:04;;;;;;;1.38;1.00;;;18.20;99.90;;;;;;5001400;28;20073;-76
2023/07/19 11:18:38;;;;;;;1.00;0.77;;;18.20;99.90;;;;;;5000448;28;20022;-76
2023/07/19 11:21:04;;;;;;;1.63;1.30;;;18.30;99.90;;;;;;4983913;28;20670;-77
2023/07/19 11:23:36;;;;;;;0.77;0.70;;;18.40;99.90;;;;;;4998433;28;20449;-76
2023/07/19 11:26:02;;;;;;;1.45;1.05;;;18.50;99.90;;;;;;5001840;28;20034;-77
2023/07/19 11:28:50;;;;;;;2.20;1.00;;;18.60;99.90;;;;;;5000891;28;20103;-76
2023/07/19 11:31:33;;;;;;;1.23;1.08;;;18.70;99.90;;;;;;5002560;28;20038;-76
2023/07/19 11:34:07;;;;;;;2.40;1.20;;;18.80;99.90;;;;;;4992393;28;20026;-76
2023/07/19 11:36:33;;;;;;;0.80;0.80;;;18.90;99.90;;;;;;5005648;28;20033;-76
2023/07/19 11:38:59;;;;;;;1.00;0.90;;;18.90;99.90;;;;;;4999055;28;20070;-76
2023/07/19 11:41:24;;;;;;;2.15;1.05;;;19.00;99.90;;;;;;5005049;28;20543;-76
2023/07/19 11:43:51;;;;;;;1.83;1.17;;;18.90;99.90;;;;;;5002948;28;20022;-76
2023/07/19 11:46:17;;;;;;;2.25;1.00;;;18.80;99.90;;;;;;5006053;28;20504;-76
2023/07/19 11:48:42;;;;;;;1.30;1.20;;;18.80;99.90;;;;;;4982328;28;20034;-76
2023/07/19 11:51:08;;;;;;;1.55;1.00;;;18.90;99.90;;;;;;4993855;28;20033;-76
2023/07/19 11:53:33;;;;;;;1.60;1.08;;;19.00;99.90;;;;;;5004896;28;20424;-76
2023/07/19 11:55:59;;;;;;;2.78;0.98;;;19.10;99.90;;;;;;4976939;28;20023;-76
2023/07/19 11:58:24;;;;;;;1.08;0.98;;;19.20;99.90;;;;;;5002327;28;20026;-76
2023/07/19 12:00:50;;;;;;;2.17;1.55;;;19.30;99.90;;;;;;4994919;28;20088;-77
2023/07/19 12:03:17;;;;;;;2.47;1.30;;;19.40;99.90;;;;;;4998297;28;20038;-76
2023/07/19 12:05:43;;;;;;;6.18;5.20;;;19.40;99.90;;;;;;5003523;28;20034;-77
2023/07/19 12:08:09;;;;;;;2.60;2.00;;;19.40;99.90;;;;;;4975943;28;20022;-77
2023/07/19 12:10:35;;;;;;;1.63;1.33;;;19.50;99.90;;;;;;5004203;28;20141;-77
2023/07/19 12:13:00;;;;;;;3.22;1.45;;;19.50;99.90;;;;;;4998765;28;20449;-77
2023/07/19 12:15:26;;;;;;;2.38;1.30;;;19.60;99.90;;;;;;4987512;28;20044;-77
2023/07/19 12:17:52;;;;;;;1.52;1.23;;;19.60;99.90;;;;;;4998774;28;20575;-77
2023/07/19 12:20:17;;;;;;;1.33;0.98;;;19.60;99.90;;;;;;5005473;28;20480;-76
2023/07/19 12:22:46;;;;;;;1.67;1.10;;;19.60;99.90;;;;;;4995319;28;20029;-77
2023/07/19 12:25:12;;;;;;;1.10;1.00;;;19.60;99.90;;;;;;4992073;28;20061;-77
2023/07/19 12:27:38;;;;;;;1.25;0.88;;;19.60;99.90;;;;;;5004443;28;20053;-77
2023/07/19 12:30:04;;;;;;;1.55;0.93;;;19.50;99.90;;;;;;4997013;28;20054;-77
2023/07/19 12:32:29;;;;;;;1.42;1.00;;;19.50;99.90;;;;;;4999248;28;20022;-77
2023/07/19 12:34:55;;;;;;;1.05;1.00;;;19.50;99.90;;;;;;5000988;28;20044;-77
2023/07/19 12:37:22;;;;;;;1.70;1.38;;;19.40;99.90;;;;;;4995861;28;20090;-77
2023/07/19 12:39:48;;;;;;;3.55;1.40;;;19.40;99.90;;;;;;5001372;28;20014;-78
2023/07/19 12:42:14;;;;;;;1.17;1.02;;;19.30;99.90;;;;;;5001860;28;20026;-77
2023/07/19 12:44:41;;;;;;;1.08;1.02;;;19.30;99.90;;;;;;5000191;28;20482;-77